createdAt,value
2018-08-30T00:00:15.013Z,69.59
2018-08-30T00:02:44.178Z,70.83
2018-08-30T00:05:16.641Z,70.70
2018-08-30T00:07:45.469Z,69.67
2018-08-30T00:10:14.837Z,69.26
2018-08-30T00:12:43.624Z,69.44
2018-08-30T00:15:12.383Z,69.37
2018-08-30T00:17:46.515Z,70.08
2018-08-30T00:20:15.209Z,68.81
2018-08-30T00:22:43.925Z,69.02
2018-08-30T00:25:12.991Z,68.72
2018-08-30T00:27:41.737Z,68.83
2018-08-30T00:30:10.377Z,68.28
2018-08-30T00:32:39.769Z,67.77
2018-08-30T00:35:08.525Z,67.56
2018-08-30T00:37:37.239Z,67.38
2018-08-30T00:40:06.500Z,66.73
2018-08-30T00:42:35.073Z,66.79
2018-08-30T00:45:04.604Z,67.41
2018-08-30T00:47:33.607Z,66.85
2018-08-30T00:50:02.989Z,67.12
2018-08-30T00:52:31.685Z,66.45
2018-08-30T00:55:00.893Z,66.45
2018-08-30T00:57:29.552Z,65.83
2018-08-30T01:00:03.845Z,65.75
2018-08-30T01:02:37.706Z,66.18
2018-08-30T01:05:06.953Z,66.30
2018-08-30T01:07:35.740Z,66.27
2018-08-30T01:10:08.153Z,66.62
2018-08-30T01:12:42.157Z,67.57
2018-08-30T01:15:10.896Z,67.37
2018-08-30T01:17:39.944Z,67.73
2018-08-30T01:20:08.699Z,67.32
2018-08-30T01:22:37.371Z,65.98
2018-08-30T01:25:06.559Z,66.33
2018-08-30T01:27:35.364Z,66.28
2018-08-30T01:30:05.126Z,66.44
2018-08-30T01:32:34.492Z,66.12
2018-08-30T01:35:03.216Z,65.94
2018-08-30T01:37:35.492Z,65.92
2018-08-30T01:40:05.734Z,67.00
2018-08-30T01:42:41.585Z,66.80
2018-08-30T01:45:41.242Z,66.20
2018-08-30T01:48:10.455Z,66.36
2018-08-30T01:50:39.230Z,67.23
2018-08-30T01:53:08.590Z,66.76
2018-08-30T01:55:39.330Z,67.92
2018-08-30T01:58:08.537Z,66.86
2018-08-30T02:00:37.221Z,66.86
2018-08-30T02:03:06.670Z,66.39
2018-08-30T02:05:35.356Z,66.37
2018-08-30T02:08:06.028Z,66.59
2018-08-30T02:10:35.253Z,66.84
2018-08-30T02:13:10.918Z,67.05
2018-08-30T02:15:40.011Z,66.21
2018-08-30T02:18:09.253Z,66.90
2018-08-30T02:20:38.294Z,66.13
2018-08-30T02:23:06.978Z,66.04
2018-08-30T02:25:37.705Z,66.86
2018-08-30T02:30:46.628Z,65.67
2018-08-30T02:33:16.695Z,65.52
2018-08-30T02:35:45.515Z,65.17
2018-08-30T02:38:14.294Z,64.60
2018-08-30T02:40:43.700Z,64.50
2018-08-30T02:43:12.899Z,64.44
2018-08-30T02:45:41.609Z,64.77
2018-08-30T02:48:11.821Z,65.36
2018-08-30T02:50:40.541Z,65.49
2018-08-30T02:53:09.203Z,66.09
2018-08-30T02:55:38.209Z,65.48
2018-08-30T02:58:06.982Z,66.01
2018-08-30T03:00:35.610Z,66.22
2018-08-30T03:03:04.836Z,66.24
2018-08-30T03:05:33.569Z,65.72
2018-08-30T03:08:07.620Z,65.71
2018-08-30T03:10:36.871Z,65.20
2018-08-30T03:13:06.717Z,65.42
2018-08-30T03:15:37.175Z,65.54
2018-08-30T03:18:06.783Z,64.63
2018-08-30T03:23:09.171Z,64.92
2018-08-30T03:25:38.218Z,65.59
2018-08-30T03:28:11.539Z,65.01
2018-08-30T03:30:40.956Z,65.18
2018-08-30T03:33:09.968Z,66.31
2018-08-30T03:35:38.626Z,67.26
2018-08-30T03:38:07.493Z,66.74
2018-08-30T03:40:36.961Z,66.63
2018-08-30T03:43:05.726Z,67.80
2018-08-30T03:45:34.663Z,68.07
2018-08-30T03:48:04.709Z,66.86
2018-08-30T03:50:33.420Z,67.57
2018-08-30T03:53:02.134Z,67.37
2018-08-30T03:55:31.379Z,67.53
2018-08-30T03:58:00.152Z,67.41
2018-08-30T04:00:28.824Z,67.60
2018-08-30T04:02:57.959Z,67.47
2018-08-30T04:05:26.715Z,68.37
2018-08-30T04:07:56.546Z,67.58
2018-08-30T04:10:25.585Z,67.87
2018-08-30T04:12:54.316Z,68.86
2018-08-30T04:15:23.048Z,68.39
2018-08-30T04:17:52.100Z,67.66
2018-08-30T04:20:20.938Z,68.56
2018-08-30T04:22:49.986Z,67.82
2018-08-30T04:25:21.287Z,68.86
2018-08-30T04:27:49.956Z,68.59
2018-08-30T04:30:18.769Z,68.10
2018-08-30T04:32:48.914Z,67.12
2018-08-30T04:35:17.627Z,67.74
2018-08-30T04:37:52.930Z,67.08
2018-08-30T04:40:22.160Z,67.17
2018-08-30T04:43:05.014Z,67.46
2018-08-30T04:48:08.194Z,66.57
2018-08-30T04:50:45.638Z,66.59
2018-08-30T04:53:14.639Z,66.92
2018-08-30T04:55:43.345Z,67.18
2018-08-30T04:58:13.177Z,66.71
2018-08-30T05:00:41.921Z,66.08
2018-08-30T05:03:10.579Z,65.30
2018-08-30T05:05:39.198Z,65.01
2018-08-30T05:08:13.888Z,65.59
2018-08-30T05:10:42.550Z,65.56
2018-08-30T05:13:11.218Z,65.08
2018-08-30T05:15:41.440Z,64.57
2018-08-30T05:18:12.214Z,65.81
2018-08-30T05:20:40.933Z,65.19
2018-08-30T05:23:16.105Z,65.77
2018-08-30T05:25:45.059Z,65.78
2018-08-30T05:28:13.875Z,65.12
2018-08-30T05:30:43.117Z,64.89
2018-08-30T05:33:16.821Z,65.06
2018-08-30T05:35:45.516Z,64.54
2018-08-30T05:38:14.476Z,65.69
2018-08-30T05:40:48.968Z,65.79
2018-08-30T05:43:17.622Z,65.02
2018-08-30T05:45:51.257Z,65.23
2018-08-30T05:48:19.952Z,65.34
2018-08-30T05:50:48.834Z,64.74
2018-08-30T05:53:17.920Z,65.46
2018-08-30T05:55:52.032Z,64.18
2018-08-30T05:58:20.734Z,64.98
2018-08-30T06:00:50.912Z,64.55
2018-08-30T06:03:19.601Z,64.03
2018-08-30T06:05:48.496Z,64.70
2018-08-30T06:08:17.811Z,63.97
2018-08-30T06:10:46.709Z,63.60
2018-08-30T06:13:15.412Z,64.06
2018-08-30T06:15:46.727Z,63.75
2018-08-30T06:18:15.487Z,64.04
2018-08-30T06:20:44.141Z,64.38
2018-08-30T06:23:16.592Z,63.66
2018-08-30T06:25:45.344Z,63.13
2018-08-30T06:28:14.119Z,63.35
2018-08-30T06:30:48.959Z,63.71
2018-08-30T06:33:23.878Z,62.93
2018-08-30T06:35:52.915Z,62.91
2018-08-30T06:38:21.628Z,61.93
2018-08-30T06:40:50.273Z,61.49
2018-08-30T06:43:19.601Z,60.89
2018-08-30T06:45:48.921Z,61.13
2018-08-30T06:48:18.458Z,60.52
2018-08-30T06:50:47.630Z,60.49
2018-08-30T06:53:16.645Z,59.24
2018-08-30T06:55:46.281Z,59.52
2018-08-30T06:58:17.501Z,59.50
2018-08-30T07:00:46.311Z,59.18
2018-08-30T07:03:15.044Z,57.83
2018-08-30T07:05:44.405Z,57.93
2018-08-30T07:08:13.907Z,57.20
2018-08-30T07:10:42.481Z,58.12
2018-08-30T07:13:11.604Z,57.45
2018-08-30T07:15:41.142Z,57.77
2018-08-30T07:18:09.825Z,56.81
2018-08-30T07:20:38.722Z,56.39
2018-08-30T07:23:07.403Z,56.03
2018-08-30T07:25:36.209Z,56.12
2018-08-30T07:28:08.972Z,55.17
2018-08-30T07:30:37.651Z,55.44
2018-08-30T07:33:12.068Z,55.79
2018-08-30T07:35:41.311Z,55.47
2018-08-30T07:38:15.661Z,55.35
2018-08-30T07:40:44.384Z,55.60
2018-08-30T07:43:18.292Z,55.51
2018-08-30T07:45:46.838Z,54.79
2018-08-30T07:48:15.719Z,54.24
2018-08-30T07:50:45.339Z,52.11
2018-08-30T07:53:14.061Z,51.42
2018-08-30T07:55:42.715Z,50.93
2018-08-30T07:58:11.666Z,51.36
2018-08-30T08:00:41.266Z,51.73
2018-08-30T08:03:13.773Z,51.13
2018-08-30T08:05:43.901Z,50.91
2018-08-30T08:08:12.581Z,51.57
2018-08-30T08:10:41.273Z,52.05
2018-08-30T08:13:10.193Z,52.65
2018-08-30T08:15:38.772Z,52.05
2018-08-30T08:18:07.525Z,53.40
2018-08-30T08:20:36.524Z,52.54
2018-08-30T08:23:05.258Z,51.81
2018-08-30T08:25:33.939Z,51.92
2018-08-30T08:28:10.120Z,52.78
2018-08-30T08:30:38.893Z,52.53
2018-08-30T08:33:07.628Z,52.78
2018-08-30T08:35:36.620Z,52.91
2018-08-30T08:38:06.983Z,52.34
2018-08-30T08:40:37.869Z,51.65
2018-08-30T08:43:07.825Z,52.48
2018-08-30T08:45:37.474Z,53.37
2018-08-30T08:48:06.206Z,53.28
2018-08-30T08:50:35.227Z,53.84
2018-08-30T08:53:03.959Z,53.44
2018-08-30T08:55:32.673Z,53.44
2018-08-30T08:58:01.752Z,53.66
2018-08-30T09:00:30.439Z,53.97
2018-08-30T09:02:59.148Z,54.75
2018-08-30T09:05:27.882Z,54.65
2018-08-30T09:08:01.553Z,54.04
2018-08-30T09:10:30.553Z,55.45
2018-08-30T09:12:59.267Z,55.09
2018-08-30T09:15:28.029Z,55.80
2018-08-30T09:18:03.259Z,55.56
2018-08-30T09:20:31.920Z,55.24
2018-08-30T09:23:01.019Z,55.28
2018-08-30T09:25:29.764Z,55.47
2018-08-30T09:27:58.463Z,55.05
2018-08-30T09:30:27.504Z,55.09
2018-08-30T09:32:56.217Z,54.97
2018-08-30T09:35:24.977Z,55.01
2018-08-30T09:37:57.001Z,54.99
2018-08-30T09:40:25.704Z,54.67
2018-08-30T09:42:54.457Z,54.13
2018-08-30T09:45:23.418Z,52.83
2018-08-30T09:47:52.102Z,52.47
2018-08-30T09:50:24.102Z,52.65
2018-08-30T09:52:53.096Z,52.24
2018-08-30T09:55:27.820Z,51.51
2018-08-30T09:57:56.412Z,50.54
2018-08-30T10:00:30.516Z,49.76
2018-08-30T10:02:59.955Z,49.32
2018-08-30T10:05:28.669Z,49.51
2018-08-30T10:07:57.658Z,48.67
2018-08-30T10:10:26.297Z,49.35
2018-08-30T10:13:00.921Z,48.59
2018-08-30T10:18:04.436Z,48.18
2018-08-30T10:20:37.466Z,47.97
2018-08-30T10:23:06.232Z,48.64
2018-08-30T10:25:35.218Z,47.95
2018-08-30T10:28:10.940Z,47.26
2018-08-30T10:30:39.675Z,48.01
2018-08-30T10:33:11.724Z,47.53
2018-08-30T10:35:41.779Z,47.21
2018-08-30T10:38:10.435Z,46.80
2018-08-30T10:40:39.229Z,47.32
2018-08-30T10:43:08.367Z,46.98
2018-08-30T10:45:47.877Z,46.21
2018-08-30T10:48:16.703Z,45.53
2018-08-30T10:50:45.676Z,46.69
2018-08-30T10:53:14.504Z,47.15
2018-08-30T10:55:43.168Z,46.82
2018-08-30T10:58:12.147Z,46.66
2018-08-30T11:00:42.315Z,47.03
2018-08-30T11:03:11.132Z,46.70
2018-08-30T11:05:41.134Z,46.40
2018-08-30T11:08:09.934Z,46.24
2018-08-30T11:10:38.683Z,45.85
2018-08-30T11:13:07.816Z,45.66
2018-08-30T11:15:36.354Z,44.44
2018-08-30T11:18:05.435Z,44.63
2018-08-30T11:20:41.397Z,43.75
2018-08-30T11:23:10.175Z,43.56
2018-08-30T11:25:38.802Z,42.25
2018-08-30T11:28:08.011Z,42.05
2018-08-30T11:30:36.669Z,41.06
2018-08-30T11:33:05.794Z,41.51
2018-08-30T11:35:34.836Z,40.81
2018-08-30T11:38:04.086Z,41.12
2018-08-30T11:40:43.557Z,41.18
2018-08-30T11:43:12.718Z,40.23
2018-08-30T11:45:41.417Z,40.38
2018-08-30T11:48:10.096Z,40.72
2018-08-30T11:50:39.451Z,40.48
2018-08-30T11:53:08.375Z,40.33
2018-08-30T11:55:37.131Z,41.53
2018-08-30T11:58:08.824Z,44.09
2018-08-30T12:00:37.605Z,43.47
2018-08-30T12:03:07.852Z,42.98
2018-08-30T12:05:39.063Z,42.50
2018-08-30T12:08:07.941Z,43.36
2018-08-30T12:10:38.317Z,42.43
2018-08-30T12:13:10.713Z,43.49
2018-08-30T12:15:39.539Z,44.43
2018-08-30T12:18:08.205Z,44.99
2018-08-30T12:20:38.832Z,45.11
2018-08-30T12:23:07.704Z,45.34
2018-08-30T12:25:36.358Z,44.98
2018-08-30T12:28:06.941Z,44.84
2018-08-30T12:30:35.804Z,44.47
2018-08-30T12:33:09.886Z,43.77
2018-08-30T12:35:38.876Z,43.89
2018-08-30T12:38:15.233Z,44.34
2018-08-30T12:40:44.030Z,43.55
2018-08-30T12:43:13.081Z,43.50
2018-08-30T12:45:41.693Z,43.20
2018-08-30T12:48:10.374Z,42.83
2018-08-30T12:50:39.472Z,43.10
2018-08-30T12:53:13.596Z,43.43
2018-08-30T12:55:42.389Z,42.46
2018-08-30T12:58:11.352Z,42.99
2018-08-30T13:00:39.924Z,42.94
2018-08-30T13:03:08.676Z,43.69
2018-08-30T13:05:37.524Z,43.03
2018-08-30T13:08:06.953Z,43.99
2018-08-30T13:10:36.268Z,45.12
2018-08-30T13:13:04.977Z,44.66
2018-08-30T13:15:33.859Z,43.66
2018-08-30T13:18:06.088Z,44.27
2018-08-30T13:20:34.762Z,43.55
2018-08-30T13:23:03.523Z,43.91
2018-08-30T13:25:32.779Z,43.98
2018-08-30T13:28:05.029Z,43.70
2018-08-30T13:30:33.816Z,43.18
2018-08-30T13:33:05.434Z,42.78
2018-08-30T13:35:33.929Z,41.00
2018-08-30T13:38:04.902Z,39.51
2018-08-30T13:40:37.944Z,38.44
2018-08-30T13:43:06.309Z,38.65
2018-08-30T13:45:35.053Z,39.03
2018-08-30T13:48:04.434Z,38.86
2018-08-30T13:50:33.134Z,39.75
2018-08-30T13:53:02.941Z,40.35
2018-08-30T13:55:31.971Z,40.40
2018-08-30T13:58:05.404Z,39.88
2018-08-30T14:00:34.129Z,39.99
2018-08-30T14:03:04.990Z,39.90
2018-08-30T14:05:33.965Z,40.48
2018-08-30T14:08:04.083Z,40.44
2018-08-30T14:10:34.082Z,40.79
2018-08-30T14:13:02.843Z,41.09
2018-08-30T14:15:31.670Z,41.72
2018-08-30T14:18:07.619Z,42.33
2018-08-30T14:20:44.454Z,41.74
2018-08-30T14:23:15.981Z,41.95
2018-08-30T14:25:52.111Z,41.91
2018-08-30T14:28:29.551Z,42.82
2018-08-30T14:31:00.536Z,42.89
2018-08-30T14:33:31.879Z,42.21
2018-08-30T14:36:01.218Z,42.21
2018-08-30T14:38:33.112Z,43.14
2018-08-30T14:41:02.001Z,43.07
2018-08-30T14:43:35.951Z,42.76
2018-08-30T14:46:05.237Z,42.23
2018-08-30T14:48:34.180Z,42.85
2018-08-30T14:51:05.551Z,42.83
2018-08-30T14:53:34.489Z,41.89
2018-08-30T14:56:03.759Z,41.94
2018-08-30T14:58:32.834Z,42.05
2018-08-30T15:01:01.648Z,42.11
2018-08-30T15:03:30.601Z,42.44
2018-08-30T15:05:59.836Z,43.49
2018-08-30T15:08:29.643Z,43.53
2018-08-30T15:10:58.269Z,43.82
2018-08-30T15:13:29.515Z,43.18
2018-08-30T15:15:58.396Z,44.13
2018-08-30T15:18:27.057Z,43.44
2018-08-30T15:20:55.995Z,43.16
2018-08-30T15:23:24.694Z,43.47
2018-08-30T15:25:53.308Z,43.36
2018-08-30T15:28:22.217Z,42.89
2018-08-30T15:30:51.176Z,43.29
2018-08-30T15:33:19.902Z,43.04
2018-08-30T15:35:59.769Z,43.37
2018-08-30T15:38:28.546Z,43.74
2018-08-30T15:40:57.614Z,43.03
2018-08-30T15:43:26.320Z,43.28
2018-08-30T15:45:55.026Z,43.24
2018-08-30T15:48:29.582Z,42.64
2018-08-30T15:50:58.395Z,42.64
2018-08-30T15:53:27.207Z,43.24
2018-08-30T15:55:59.513Z,43.28
2018-08-30T15:58:28.238Z,43.06
2018-08-30T16:00:56.868Z,42.92
2018-08-30T16:03:25.854Z,43.76
2018-08-30T16:05:54.525Z,43.64
2018-08-30T16:08:23.257Z,43.40
2018-08-30T16:11:03.094Z,43.30
2018-08-30T16:13:32.612Z,44.15
2018-08-30T16:16:02.502Z,44.31
2018-08-30T16:18:31.910Z,43.90
2018-08-30T16:21:00.637Z,44.90
2018-08-30T16:26:08.874Z,45.28
2018-08-30T16:28:37.594Z,45.97
2018-08-30T16:31:06.634Z,46.68
2018-08-30T16:33:35.425Z,47.11
2018-08-30T16:36:11.771Z,46.59
2018-08-30T16:38:40.722Z,47.11
2018-08-30T16:41:09.500Z,46.76
2018-08-30T16:43:38.163Z,46.93
2018-08-30T16:46:07.378Z,47.52
2018-08-30T16:48:36.679Z,47.33
2018-08-30T16:51:06.521Z,47.33
2018-08-30T16:53:35.671Z,47.15
2018-08-30T16:56:05.084Z,46.74
2018-08-30T16:58:33.790Z,47.37
2018-08-30T17:01:02.747Z,46.56
2018-08-30T17:03:31.609Z,46.47
2018-08-30T17:06:04.585Z,46.73
2018-08-30T17:08:34.724Z,47.08
2018-08-30T17:11:03.436Z,47.90
2018-08-30T17:13:32.591Z,47.73
2018-08-30T17:16:01.540Z,47.10
2018-08-30T17:18:33.612Z,47.23
2018-08-30T17:21:02.284Z,47.84
2018-08-30T17:23:31.318Z,47.50
2018-08-30T17:26:00.080Z,47.01
2018-08-30T17:28:28.757Z,48.64
2018-08-30T17:30:57.807Z,49.28
2018-08-30T17:33:26.682Z,49.54
2018-08-30T17:35:55.308Z,49.98
2018-08-30T17:38:24.352Z,50.68
2018-08-30T17:40:53.105Z,50.76
2018-08-30T17:43:21.808Z,50.85
2018-08-30T17:45:50.819Z,50.34
2018-08-30T17:48:19.697Z,51.26
2018-08-30T17:50:48.388Z,51.90
2018-08-30T17:53:17.416Z,51.88
2018-08-30T17:55:46.155Z,51.77
2018-08-30T17:58:14.892Z,52.84
2018-08-30T18:00:45.828Z,52.25
2018-08-30T18:03:14.494Z,52.20
2018-08-30T18:05:44.070Z,52.97
2018-08-30T18:08:13.150Z,52.91
2018-08-30T18:10:41.905Z,52.77
2018-08-30T18:13:10.609Z,52.56
2018-08-30T18:15:39.584Z,53.75
2018-08-30T18:18:08.475Z,52.88
2018-08-30T18:20:38.709Z,53.67
2018-08-30T18:23:07.759Z,54.08
2018-08-30T18:25:36.530Z,54.07
2018-08-30T18:28:19.841Z,53.54
2018-08-30T18:30:48.902Z,54.25
2018-08-30T18:33:21.176Z,54.07
2018-08-30T18:35:49.839Z,55.45
2018-08-30T18:38:25.402Z,56.31
2018-08-30T18:40:55.046Z,55.81
2018-08-30T18:43:29.644Z,55.76
2018-08-30T18:45:58.421Z,56.02
2018-08-30T18:48:27.134Z,55.48
2018-08-30T18:51:04.549Z,55.52
2018-08-30T18:53:33.337Z,54.89
2018-08-30T18:56:02.711Z,55.17
2018-08-30T18:58:32.444Z,56.19
2018-08-30T19:01:01.174Z,55.49
2018-08-30T19:03:30.303Z,56.35
2018-08-30T19:05:59.263Z,55.64
2018-08-30T19:08:27.998Z,55.14
2018-08-30T19:10:57.403Z,55.09
2018-08-30T19:13:26.311Z,55.04
2018-08-30T19:16:00.071Z,55.66
2018-08-30T19:18:37.567Z,55.84
2018-08-30T19:21:07.190Z,54.33
2018-08-30T19:23:36.281Z,53.65
2018-08-30T19:26:06.368Z,50.42
2018-08-30T19:28:35.039Z,49.98
2018-08-30T19:31:04.297Z,48.98
2018-08-30T19:33:33.050Z,47.99
2018-08-30T19:36:06.780Z,48.74
2018-08-30T19:38:35.866Z,47.35
2018-08-30T19:41:09.554Z,47.66
2018-08-30T19:43:38.266Z,48.24
2018-08-30T19:46:07.351Z,48.19
2018-08-30T19:48:36.039Z,47.80
2018-08-30T19:51:04.797Z,46.88
2018-08-30T19:53:33.992Z,47.02
2018-08-30T19:56:03.285Z,45.96
2018-08-30T19:58:34.511Z,45.75
2018-08-30T20:01:07.609Z,45.63
2018-08-30T20:03:36.534Z,45.37
2018-08-30T20:06:06.392Z,45.41
2018-08-30T20:08:35.450Z,45.02
2018-08-30T20:11:04.335Z,44.93
2018-08-30T20:13:34.300Z,44.98
2018-08-30T20:16:04.121Z,44.11
2018-08-30T20:18:35.815Z,44.16
2018-08-30T20:21:04.562Z,43.77
2018-08-30T20:23:33.349Z,44.40
2018-08-30T20:26:02.849Z,44.40
2018-08-30T20:28:32.986Z,43.73
2018-08-30T20:31:02.719Z,43.18
2018-08-30T20:33:31.506Z,43.73
2018-08-30T20:36:00.190Z,43.85
2018-08-30T20:38:29.092Z,43.03
2018-08-30T20:40:58.497Z,43.29
2018-08-30T20:43:27.126Z,43.31
2018-08-30T20:45:55.864Z,43.83
2018-08-30T20:48:26.549Z,42.70
2018-08-30T20:50:55.404Z,43.55
2018-08-30T20:53:24.111Z,42.76
2018-08-30T20:55:55.957Z,42.84
2018-08-30T20:58:24.626Z,42.92
2018-08-30T21:03:21.436Z,42.51
2018-08-30T21:05:50.127Z,41.97
2018-08-30T21:08:19.193Z,42.77
2018-08-30T21:10:48.230Z,42.06
2018-08-30T21:13:16.930Z,42.19
2018-08-30T21:15:45.620Z,41.51
2018-08-30T21:18:14.572Z,42.03
2018-08-30T21:20:45.268Z,42.08
2018-08-30T21:23:13.911Z,42.11
2018-08-30T21:25:43.221Z,42.33
2018-08-30T21:28:11.828Z,42.06
2018-08-30T21:30:40.475Z,41.84
2018-08-30T21:33:14.163Z,42.20
2018-08-30T21:35:42.894Z,42.39
2018-08-30T21:38:14.391Z,41.85
2018-08-30T21:40:43.369Z,41.23
2018-08-30T21:43:12.276Z,41.75
2018-08-30T21:45:41.877Z,42.09
2018-08-30T21:48:11.030Z,41.84
2018-08-30T21:50:39.663Z,41.38
2018-08-30T21:53:08.338Z,42.22
2018-08-30T21:55:41.210Z,41.84
2018-08-30T21:58:10.029Z,41.48
2018-08-30T22:00:39.370Z,41.32
2018-08-30T22:03:13.846Z,41.57
2018-08-30T22:05:42.728Z,42.08
2018-08-30T22:08:18.516Z,41.33
2018-08-30T22:10:47.519Z,41.75
2018-08-30T22:13:16.328Z,41.02
2018-08-30T22:15:55.971Z,40.79
2018-08-30T22:18:26.060Z,41.58
2018-08-30T22:20:56.049Z,41.50
2018-08-30T22:23:24.820Z,40.90
2018-08-30T22:25:54.950Z,41.58
2018-08-30T22:28:25.276Z,41.66
2018-08-30T22:30:53.920Z,41.35
2018-08-30T22:33:22.860Z,41.17
2018-08-30T22:35:52.070Z,41.33
2018-08-30T22:38:20.745Z,42.48
2018-08-30T22:40:49.371Z,41.90
2018-08-30T22:43:19.167Z,41.82
2018-08-30T22:45:53.932Z,42.11
2018-08-30T22:48:23.055Z,41.73
2018-08-30T22:50:51.779Z,42.03
2018-08-30T22:53:20.401Z,42.24
2018-08-30T22:55:49.654Z,42.42
2018-08-30T22:58:18.501Z,42.37
2018-08-30T23:00:47.143Z,42.72
2018-08-30T23:03:16.146Z,42.83
2018-08-30T23:05:44.834Z,42.16
2018-08-30T23:08:13.414Z,42.36
2018-08-30T23:10:42.535Z,42.47
2018-08-30T23:13:11.199Z,42.17
2018-08-30T23:15:40.044Z,42.38
2018-08-30T23:18:10.285Z,42.85
2018-08-30T23:20:38.901Z,43.31
2018-08-30T23:23:07.535Z,42.66
2018-08-30T23:25:42.152Z,43.01
2018-08-30T23:28:12.685Z,42.83
2018-08-30T23:30:41.912Z,42.97
2018-08-30T23:33:12.177Z,42.86
2018-08-30T23:35:40.847Z,42.97
2018-08-30T23:38:17.415Z,42.90
2018-08-30T23:40:46.102Z,43.08
2018-08-30T23:43:17.920Z,43.32
2018-08-30T23:45:52.500Z,43.45
2018-08-30T23:48:21.410Z,44.09
2018-08-30T23:50:53.332Z,43.48
2018-08-30T23:53:22.283Z,43.32
2018-08-30T23:55:50.926Z,43.43
2018-08-30T23:58:30.708Z,43.96
